createdAt,value
2024-01-21T00:01:22.341Z,-9.20
2024-01-21T00:03:49.851Z,-9.20
2024-01-21T00:06:16.796Z,-9.30
2024-01-21T00:08:44.556Z,-9.30
2024-01-21T00:11:11.409Z,-9.50
2024-01-21T00:13:39.013Z,-9.50
2024-01-21T00:16:05.943Z,-9.60
2024-01-21T00:18:33.537Z,-9.30
2024-01-21T00:21:00.539Z,-9.20
2024-01-21T00:23:28.674Z,-9.20
2024-01-21T00:25:55.639Z,-9.20
2024-01-21T00:28:23.146Z,-9.20
2024-01-21T00:30:50.053Z,-9.20
2024-01-21T00:33:17.459Z,-9.30
2024-01-21T00:35:47.310Z,-9.60
2024-01-21T00:38:14.427Z,-9.60
2024-01-21T00:40:42.298Z,-9.80
2024-01-21T00:43:09.915Z,-10.10
2024-01-21T00:45:37.324Z,-9.80
2024-01-21T00:48:04.972Z,-10.10
2024-01-21T00:50:32.084Z,-9.90
2024-01-21T00:53:02.055Z,-9.90
2024-01-21T00:55:29.387Z,-9.70
2024-01-21T00:57:56.969Z,-9.80
2024-01-21T01:00:27.345Z,-9.90
2024-01-21T01:02:55.427Z,-9.70
2024-01-21T01:05:22.488Z,-9.70
2024-01-21T01:07:50.249Z,-9.80
2024-01-21T01:10:17.153Z,-9.90
2024-01-21T01:12:44.706Z,-9.80
2024-01-21T01:15:15.750Z,-9.80
2024-01-21T01:17:42.788Z,-9.80
2024-01-21T01:20:12.773Z,-10.00
2024-01-21T01:22:40.101Z,-9.90
2024-01-21T01:25:07.117Z,-9.90
2024-01-21T01:27:34.624Z,-10.00
2024-01-21T01:30:01.582Z,-9.80
2024-01-21T01:32:30.230Z,-9.70
2024-01-21T01:34:57.186Z,-9.60
2024-01-21T01:37:24.168Z,-9.50
2024-01-21T01:39:51.185Z,-9.60
2024-01-21T01:42:19.195Z,-9.70
2024-01-21T01:44:46.222Z,-9.60
2024-01-21T01:47:13.525Z,-9.70
2024-01-21T01:49:42.963Z,-9.70
2024-01-21T01:52:14.145Z,-9.50
2024-01-21T01:54:43.256Z,-9.60
2024-01-21T01:57:10.884Z,-10.00
2024-01-21T01:59:39.768Z,-10.50
2024-01-21T02:02:07.695Z,-10.90
2024-01-21T02:04:34.916Z,-10.70
2024-01-21T02:07:01.913Z,-10.20
2024-01-21T02:09:29.436Z,-10.10
2024-01-21T02:11:56.722Z,-9.80
2024-01-21T02:14:23.593Z,-9.70
2024-01-21T02:16:51.468Z,-10.10
2024-01-21T02:19:21.923Z,-10.00
2024-01-21T02:21:49.097Z,-10.00
2024-01-21T02:24:16.278Z,-10.00
2024-01-21T02:26:43.269Z,-9.90
2024-01-21T02:29:12.370Z,-9.90
2024-01-21T02:31:40.152Z,-10.00
2024-01-21T02:34:07.128Z,-9.90
2024-01-21T02:36:34.651Z,-9.90
2024-01-21T02:39:01.990Z,-9.90
2024-01-21T02:41:29.021Z,-9.90
2024-01-21T02:43:56.376Z,-9.90
2024-01-21T02:46:24.114Z,-9.80
2024-01-21T02:48:51.713Z,-9.90
2024-01-21T02:51:19.391Z,-10.10
2024-01-21T02:53:46.282Z,-10.00
2024-01-21T02:56:23.173Z,-9.90
2024-01-21T02:58:51.783Z,-9.90
2024-01-21T03:01:18.898Z,-10.00
2024-01-21T03:03:47.924Z,-10.00
2024-01-21T03:06:14.896Z,-9.90
2024-01-21T03:08:43.297Z,-9.90
2024-01-21T03:11:10.268Z,-9.90
2024-01-21T03:13:37.132Z,-9.90
2024-01-21T03:16:04.345Z,-9.80
2024-01-21T03:18:31.234Z,-9.90
2024-01-21T03:20:58.674Z,-9.90
2024-01-21T03:23:25.552Z,-10.00
2024-01-21T03:25:54.498Z,-10.00
2024-01-21T03:28:23.857Z,-10.00
2024-01-21T03:30:51.321Z,-10.00
2024-01-21T03:33:18.858Z,-9.90
2024-01-21T03:35:46.064Z,-9.90
2024-01-21T03:38:12.979Z,-10.00
2024-01-21T03:40:42.415Z,-10.20
2024-01-21T03:43:09.319Z,-10.20
2024-01-21T03:45:36.598Z,-9.90
2024-01-21T03:48:04.770Z,-10.00
2024-01-21T03:50:34.202Z,-10.10
2024-01-21T03:53:01.327Z,-10.20
2024-01-21T03:55:28.632Z,-10.30
2024-01-21T03:57:55.664Z,-10.30
2024-01-21T04:00:23.162Z,-10.30
2024-01-21T04:02:51.659Z,-10.40
2024-01-21T04:05:19.638Z,-10.50
2024-01-21T04:07:46.522Z,-10.30
2024-01-21T04:10:13.952Z,-10.20
2024-01-21T04:12:40.868Z,-10.40
2024-01-21T04:15:10.254Z,-10.40
2024-01-21T04:17:37.303Z,-10.20
2024-01-21T04:20:09.414Z,-10.20
2024-01-21T04:22:36.437Z,-10.40
2024-01-21T04:25:04.822Z,-10.40
2024-01-21T04:27:32.252Z,-10.40
2024-01-21T04:29:59.497Z,-10.50
2024-01-21T04:32:26.449Z,-10.50
2024-01-21T04:34:54.696Z,-10.40
2024-01-21T04:37:21.625Z,-10.60
2024-01-21T04:39:49.385Z,-10.50
2024-01-21T04:42:16.483Z,-10.50
2024-01-21T04:44:44.329Z,-10.50
2024-01-21T04:47:11.186Z,-10.60
2024-01-21T04:49:38.251Z,-10.60
2024-01-21T04:52:05.521Z,-10.50
2024-01-21T04:54:33.564Z,-10.40
2024-01-21T04:57:00.990Z,-10.30
2024-01-21T04:59:29.245Z,-10.40
2024-01-21T05:01:56.120Z,-10.40
2024-01-21T05:04:23.588Z,-10.40
2024-01-21T05:06:50.729Z,-10.40
2024-01-21T05:09:18.107Z,-10.40
2024-01-21T05:11:45.257Z,-10.50
2024-01-21T05:14:12.703Z,-10.40
2024-01-21T05:16:40.343Z,-10.50
2024-01-21T05:19:07.784Z,-10.50
2024-01-21T05:21:34.732Z,-10.50
2024-01-21T05:24:01.607Z,-10.40
2024-01-21T05:26:30.992Z,-10.50
2024-01-21T05:29:00.516Z,-10.50
2024-01-21T05:31:33.454Z,-10.30
2024-01-21T05:34:01.898Z,-10.30
2024-01-21T05:36:31.967Z,-10.50
2024-01-21T05:38:58.910Z,-10.80
2024-01-21T05:41:26.257Z,-10.60
2024-01-21T05:43:53.222Z,-10.40
2024-01-21T05:46:20.586Z,-10.60
2024-01-21T05:48:47.523Z,-10.50
2024-01-21T05:51:14.548Z,-10.40
2024-01-21T05:53:43.671Z,-10.20
2024-01-21T05:56:12.138Z,-10.20
2024-01-21T05:58:39.103Z,-10.10
2024-01-21T06:01:06.605Z,-10.10
2024-01-21T06:03:33.631Z,-10.00
2024-01-21T06:06:01.163Z,-9.90
2024-01-21T06:08:29.582Z,-9.90
2024-01-21T06:10:56.982Z,-10.00
2024-01-21T06:13:23.865Z,-10.10
2024-01-21T06:15:51.790Z,-9.90
2024-01-21T06:18:20.028Z,-10.20
2024-01-21T06:20:48.148Z,-10.40
2024-01-21T06:23:15.084Z,-10.30
2024-01-21T06:25:42.506Z,-10.10
2024-01-21T06:28:09.442Z,-9.90
2024-01-21T06:30:36.905Z,-9.70
2024-01-21T06:33:04.248Z,-9.60
2024-01-21T06:35:32.421Z,-9.50
2024-01-21T06:37:59.291Z,-9.60
2024-01-21T06:40:27.465Z,-9.80
2024-01-21T06:42:55.983Z,-9.80
2024-01-21T06:45:25.190Z,-9.80
2024-01-21T06:47:53.404Z,-9.50
2024-01-21T06:50:22.779Z,-9.40
2024-01-21T06:52:50.432Z,-9.40
2024-01-21T06:55:19.196Z,-9.40
2024-01-21T06:57:48.410Z,-9.40
2024-01-21T07:00:16.116Z,-9.30
2024-01-21T07:02:43.055Z,-9.30
2024-01-21T07:05:11.228Z,-9.30
2024-01-21T07:07:38.505Z,-9.20
2024-01-21T07:10:07.310Z,-9.00
2024-01-21T07:12:34.231Z,-8.80
2024-01-21T07:15:01.252Z,-8.70
2024-01-21T07:17:28.153Z,-8.80
2024-01-21T07:19:56.186Z,-8.70
2024-01-21T07:22:23.384Z,-8.60
2024-01-21T07:24:50.843Z,-8.60
2024-01-21T07:27:18.336Z,-8.70
2024-01-21T07:29:47.486Z,-8.70
2024-01-21T07:32:15.491Z,-8.70
2024-01-21T07:34:43.155Z,-8.60
2024-01-21T07:37:11.289Z,-8.60
2024-01-21T07:39:38.321Z,-8.60
2024-01-21T07:42:05.559Z,-8.60
2024-01-21T07:44:32.434Z,-8.50
2024-01-21T07:46:59.543Z,-8.50
2024-01-21T07:49:29.980Z,-8.50
2024-01-21T07:51:58.046Z,-8.40
2024-01-21T07:54:25.389Z,-8.40
2024-01-21T07:56:52.300Z,-8.30
2024-01-21T07:59:19.393Z,-8.20
2024-01-21T08:01:48.431Z,-8.10
2024-01-21T08:04:16.055Z,-7.90
2024-01-21T08:06:43.280Z,-8.00
2024-01-21T08:09:10.190Z,-8.00
2024-01-21T08:11:38.822Z,-7.90
2024-01-21T08:14:05.776Z,-7.80
2024-01-21T08:16:33.497Z,-7.70
2024-01-21T08:19:00.553Z,-7.60
2024-01-21T08:21:27.595Z,-7.60
2024-01-21T08:23:55.287Z,-7.50
2024-01-21T08:26:22.237Z,-7.50
2024-01-21T08:28:50.277Z,-7.40
2024-01-21T08:31:18.015Z,-7.30
2024-01-21T08:33:45.179Z,-7.20
2024-01-21T08:36:12.620Z,-7.10
2024-01-21T08:38:40.300Z,-7.00
2024-01-21T08:41:07.934Z,-7.00
2024-01-21T08:43:37.739Z,-6.90
2024-01-21T08:46:05.151Z,-6.80
2024-01-21T08:48:32.576Z,-6.60
2024-01-21T08:51:02.526Z,-6.60
2024-01-21T08:53:29.410Z,-6.40
2024-01-21T08:55:57.063Z,-6.10
2024-01-21T08:58:23.955Z,-6.00
2024-01-21T09:00:53.513Z,-5.90
2024-01-21T09:03:21.617Z,-5.80
2024-01-21T09:05:48.666Z,-5.50
2024-01-21T09:08:15.662Z,-5.10
2024-01-21T09:10:45.789Z,-5.20
2024-01-21T09:13:14.599Z,-5.20
2024-01-21T09:15:43.048Z,-5.30
2024-01-21T09:18:10.866Z,-5.30
2024-01-21T09:20:37.802Z,-5.20
2024-01-21T09:23:04.766Z,-5.10
2024-01-21T09:25:31.709Z,-4.90
2024-01-21T09:27:58.832Z,-4.50
2024-01-21T09:30:26.320Z,-4.40
2024-01-21T09:32:53.446Z,-4.40
2024-01-21T09:35:21.020Z,-4.30
2024-01-21T09:37:48.089Z,-4.20
2024-01-21T09:40:15.146Z,-4.10
2024-01-21T09:42:42.078Z,-4.00
2024-01-21T09:45:11.705Z,-4.00
2024-01-21T09:47:40.886Z,-3.80
2024-01-21T09:50:11.288Z,-3.80
2024-01-21T09:52:38.291Z,-3.40
2024-01-21T09:55:05.763Z,-3.60
2024-01-21T09:57:32.714Z,-3.30
2024-01-21T09:59:59.640Z,-3.30
2024-01-21T10:02:26.768Z,-3.30
2024-01-21T10:04:55.902Z,-3.10
2024-01-21T10:07:23.036Z,-3.10
2024-01-21T10:09:55.480Z,-2.90
2024-01-21T10:12:23.455Z,-2.90
2024-01-21T10:14:52.798Z,-2.90
2024-01-21T10:17:26.263Z,-2.90
2024-01-21T10:19:56.414Z,-2.80
2024-01-21T10:22:24.565Z,-2.60
2024-01-21T10:24:52.383Z,-2.40
2024-01-21T10:27:19.421Z,-2.30
2024-01-21T10:29:46.898Z,-2.20
2024-01-21T10:32:17.267Z,-2.20
2024-01-21T10:34:51.050Z,-1.90
2024-01-21T10:37:18.355Z,-1.80
2024-01-21T10:39:46.564Z,-1.80
2024-01-21T10:42:17.098Z,-1.80
2024-01-21T10:44:44.970Z,-1.90
2024-01-21T10:47:13.704Z,-2.00
2024-01-21T10:49:43.110Z,-2.00
2024-01-21T10:52:13.222Z,-2.10
2024-01-21T10:54:41.357Z,-2.10
2024-01-21T10:57:08.337Z,-2.10
2024-01-21T10:59:40.412Z,-2.10
2024-01-21T11:02:12.915Z,-2.10
2024-01-21T11:04:42.045Z,-2.10
2024-01-21T11:07:10.620Z,-2.10
2024-01-21T11:09:38.797Z,-2.10
2024-01-21T11:12:06.486Z,-2.00
2024-01-21T11:14:42.113Z,-2.00
2024-01-21T11:17:11.559Z,-1.90
2024-01-21T11:19:51.337Z,-1.90
2024-01-21T11:22:19.245Z,-1.80
2024-01-21T11:24:50.078Z,-1.70
2024-01-21T11:27:18.088Z,-1.50
2024-01-21T11:29:46.272Z,-1.30
2024-01-21T11:32:13.434Z,-1.20
2024-01-21T11:34:45.193Z,-0.90
2024-01-21T11:37:15.559Z,-0.60
2024-01-21T11:39:45.662Z,-0.50
2024-01-21T11:42:12.934Z,-0.60
2024-01-21T11:44:41.186Z,-0.60
2024-01-21T11:47:09.781Z,-0.60
2024-01-21T11:49:38.197Z,-0.60
2024-01-21T11:52:09.414Z,-0.70
2024-01-21T11:54:41.030Z,-0.60
2024-01-21T11:57:08.706Z,-0.60
2024-01-21T11:59:37.304Z,-0.70
2024-01-21T12:02:06.386Z,-0.60
2024-01-21T12:04:36.698Z,-0.60
2024-01-21T12:07:03.799Z,-0.40
2024-01-21T12:09:30.934Z,-0.20
2024-01-21T12:11:59.220Z,-0.20
2024-01-21T12:14:28.540Z,-0.30
2024-01-21T12:16:56.233Z,-0.20
2024-01-21T12:19:27.263Z,-0.10
2024-01-21T12:21:55.850Z,-0.20
2024-01-21T12:24:27.752Z,-0.30
2024-01-21T12:27:00.448Z,-0.40
2024-01-21T12:29:28.369Z,-0.60
2024-01-21T12:31:56.291Z,-0.60
2024-01-21T12:34:23.392Z,-0.60
2024-01-21T12:36:53.949Z,-0.50
2024-01-21T12:39:24.083Z,-0.40
2024-01-21T12:41:51.034Z,-0.30
2024-01-21T12:44:17.994Z,-0.20
2024-01-21T12:46:46.839Z,-0.10
2024-01-21T12:49:14.078Z,0.00
2024-01-21T12:51:44.313Z,0.00
2024-01-21T12:54:11.512Z,0.10
2024-01-21T12:56:44.127Z,0.20
2024-01-21T12:59:15.401Z,0.40
2024-01-21T13:01:42.720Z,0.60
2024-01-21T13:04:09.943Z,0.80
2024-01-21T13:06:37.189Z,0.90
2024-01-21T13:09:04.943Z,0.80
2024-01-21T13:11:33.444Z,0.60
2024-01-21T13:14:00.302Z,0.60
2024-01-21T13:16:30.081Z,0.70
2024-01-21T13:18:57.010Z,0.60
2024-01-21T13:21:25.821Z,0.60
2024-01-21T13:23:53.072Z,0.60
2024-01-21T13:26:22.875Z,0.50
2024-01-21T13:29:10.476Z,0.50
2024-01-21T13:31:39.584Z,0.70
2024-01-21T13:34:06.817Z,1.10
2024-01-21T13:36:36.980Z,1.30
2024-01-21T13:39:06.503Z,1.50
2024-01-21T13:41:33.461Z,1.30
2024-01-21T13:44:00.572Z,1.20
2024-01-21T13:46:28.115Z,1.10
2024-01-21T13:48:55.520Z,1.00
2024-01-21T13:51:23.061Z,0.90
2024-01-21T13:53:50.596Z,0.70
2024-01-21T13:56:19.768Z,0.70
2024-01-21T13:58:47.606Z,0.70
2024-01-21T14:01:17.862Z,0.70
2024-01-21T14:03:45.265Z,0.60
2024-01-21T14:06:20.791Z,0.60
2024-01-21T14:08:48.078Z,0.60
2024-01-21T14:11:14.982Z,0.50
2024-01-21T14:13:42.024Z,0.50
2024-01-21T14:16:10.255Z,0.50
2024-01-21T14:18:41.236Z,0.50
2024-01-21T14:21:09.905Z,0.60
2024-01-21T14:23:37.738Z,0.70
2024-01-21T14:26:09.301Z,0.70
2024-01-21T14:28:39.754Z,0.60
2024-01-21T14:31:10.835Z,0.60
2024-01-21T14:33:39.085Z,0.60
2024-01-21T14:36:07.486Z,0.70
2024-01-21T14:38:34.444Z,0.60
2024-01-21T14:41:01.333Z,0.50
2024-01-21T14:43:30.478Z,0.50
2024-01-21T14:46:00.799Z,0.50
2024-01-21T14:48:27.916Z,0.50
2024-01-21T14:50:54.904Z,0.50
2024-01-21T14:53:21.876Z,0.40
2024-01-21T14:55:49.990Z,0.30
2024-01-21T14:58:16.940Z,0.30
2024-01-21T15:00:49.730Z,0.30
2024-01-21T15:03:17.365Z,0.30
2024-01-21T15:05:45.819Z,0.30
2024-01-21T15:08:12.874Z,0.20
2024-01-21T15:10:40.618Z,0.20
2024-01-21T15:13:11.268Z,0.20
2024-01-21T15:15:40.059Z,0.20
2024-01-21T15:18:12.437Z,0.20
2024-01-21T15:20:45.081Z,0.20
2024-01-21T15:23:13.539Z,0.20
2024-01-21T15:25:45.085Z,0.20
2024-01-21T15:28:12.679Z,0.20
2024-01-21T15:30:44.663Z,0.20
2024-01-21T15:33:11.848Z,0.20
2024-01-21T15:35:39.056Z,0.10
2024-01-21T15:38:06.177Z,0.10
2024-01-21T15:40:35.038Z,0.00
2024-01-21T15:43:03.195Z,0.10
2024-01-21T15:45:31.193Z,0.10
2024-01-21T15:48:00.106Z,0.10
2024-01-21T15:50:27.443Z,0.10
2024-01-21T15:52:55.191Z,0.10
2024-01-21T15:55:22.516Z,0.10
2024-01-21T15:57:49.479Z,0.10
2024-01-21T16:00:17.540Z,0.20
2024-01-21T16:02:47.660Z,0.20
2024-01-21T16:05:15.558Z,0.20
2024-01-21T16:07:42.897Z,0.20
2024-01-21T16:10:09.886Z,0.20
2024-01-21T16:12:39.772Z,0.20
2024-01-21T16:15:13.992Z,0.20
2024-01-21T16:17:46.353Z,0.20
2024-01-21T16:20:16.269Z,0.20
2024-01-21T16:22:48.148Z,0.30
2024-01-21T16:25:15.087Z,0.30
2024-01-21T16:27:45.427Z,0.30
2024-01-21T16:30:14.785Z,0.30
2024-01-21T16:32:43.309Z,0.30
2024-01-21T16:35:11.278Z,0.30
2024-01-21T16:37:40.541Z,0.30
2024-01-21T16:40:11.359Z,0.40
2024-01-21T16:42:40.166Z,0.40
2024-01-21T16:45:08.624Z,0.40
2024-01-21T16:47:38.308Z,0.30
2024-01-21T16:50:05.480Z,0.40
2024-01-21T16:52:33.534Z,0.30
2024-01-21T16:55:01.604Z,0.30
2024-01-21T16:57:29.703Z,0.30
2024-01-21T16:59:59.271Z,0.30
2024-01-21T17:02:27.683Z,0.30
2024-01-21T17:04:57.688Z,0.30
2024-01-21T17:07:26.928Z,0.30
2024-01-21T17:09:54.009Z,0.30
2024-01-21T17:12:26.267Z,0.40
2024-01-21T17:14:53.406Z,0.40
2024-01-21T17:17:20.888Z,0.40
2024-01-21T17:19:47.848Z,0.50
2024-01-21T17:22:16.065Z,0.50
2024-01-21T17:24:47.881Z,0.50
2024-01-21T17:27:17.987Z,0.50
2024-01-21T17:29:46.632Z,0.60
2024-01-21T17:32:14.025Z,0.60
2024-01-21T17:34:41.054Z,0.70
2024-01-21T17:37:08.196Z,0.70
2024-01-21T17:39:35.194Z,0.70
2024-01-21T17:42:09.935Z,0.80
2024-01-21T17:44:38.019Z,0.90
2024-01-21T17:47:06.573Z,1.00
2024-01-21T17:49:36.414Z,1.00
2024-01-21T17:52:04.090Z,1.00
2024-01-21T17:54:32.387Z,1.00
2024-01-21T17:57:00.332Z,1.00
2024-01-21T17:59:29.682Z,1.10
2024-01-21T18:01:57.741Z,1.10
2024-01-21T18:04:27.660Z,1.20
2024-01-21T18:06:55.039Z,1.20
2024-01-21T18:09:22.254Z,1.20
2024-01-21T18:11:49.984Z,1.50
2024-01-21T18:14:19.344Z,1.50
2024-01-21T18:16:47.825Z,1.50
2024-01-21T18:19:15.499Z,1.60
2024-01-21T18:21:48.694Z,1.60
2024-01-21T18:24:18.729Z,1.70
2024-01-21T18:26:45.666Z,1.60
2024-01-21T18:29:21.208Z,1.60
2024-01-21T18:31:57.256Z,1.60
2024-01-21T18:34:28.937Z,1.50
2024-01-21T18:37:00.774Z,1.50
2024-01-21T18:39:28.273Z,1.40
2024-01-21T18:41:55.864Z,1.40
2024-01-21T18:44:23.149Z,1.30
2024-01-21T18:46:53.170Z,1.20
2024-01-21T18:49:20.539Z,1.30
2024-01-21T18:51:48.467Z,1.30
2024-01-21T18:54:16.627Z,1.30
2024-01-21T18:56:43.772Z,1.40
2024-01-21T18:59:10.704Z,1.40
2024-01-21T19:01:37.866Z,1.40
2024-01-21T19:04:04.971Z,1.40
2024-01-21T19:06:32.034Z,1.30
2024-01-21T19:09:01.853Z,1.40
2024-01-21T19:11:28.799Z,1.40
2024-01-21T19:13:57.037Z,1.40
2024-01-21T19:16:25.832Z,1.40
2024-01-21T19:18:56.657Z,1.30
2024-01-21T19:21:27.928Z,1.30
2024-01-21T19:23:55.583Z,1.30
2024-01-21T19:26:22.608Z,1.30
2024-01-21T19:28:54.070Z,1.30
2024-01-21T19:31:21.362Z,1.20
2024-01-21T19:33:50.435Z,1.20
2024-01-21T19:36:18.167Z,1.20
2024-01-21T19:38:45.124Z,1.20
2024-01-21T19:41:15.714Z,1.10
2024-01-21T19:43:43.895Z,1.10
2024-01-21T19:46:11.434Z,1.10
2024-01-21T19:48:39.636Z,1.10
2024-01-21T19:51:10.024Z,1.10
2024-01-21T19:53:38.269Z,1.20
2024-01-21T19:56:06.662Z,1.30
2024-01-21T19:58:34.105Z,1.30
2024-01-21T20:01:01.149Z,1.40
2024-01-21T20:03:28.934Z,1.30
2024-01-21T20:05:56.815Z,1.50
2024-01-21T20:08:23.827Z,1.50
2024-01-21T20:10:52.475Z,1.50
2024-01-21T20:13:19.629Z,1.50
2024-01-21T20:15:46.804Z,1.40
2024-01-21T20:18:14.397Z,1.50
2024-01-21T20:20:41.548Z,1.50
2024-01-21T20:23:08.987Z,1.50
2024-01-21T20:25:35.891Z,1.50
2024-01-21T20:28:02.852Z,1.50
2024-01-21T20:30:30.521Z,1.50
2024-01-21T20:33:01.061Z,1.60
2024-01-21T20:35:28.910Z,1.60
2024-01-21T20:37:55.933Z,1.60
2024-01-21T20:40:24.239Z,1.70
2024-01-21T20:42:54.554Z,1.70
2024-01-21T20:45:23.626Z,1.60
2024-01-21T20:47:51.190Z,1.60
2024-01-21T20:50:22.929Z,1.60
2024-01-21T20:52:56.491Z,1.60
2024-01-21T20:55:27.126Z,1.60
2024-01-21T20:57:55.693Z,1.60
2024-01-21T21:00:24.203Z,1.60
2024-01-21T21:02:52.388Z,1.60
2024-01-21T21:05:19.649Z,1.60
2024-01-21T21:07:46.975Z,1.60
2024-01-21T21:10:14.062Z,1.60
2024-01-21T21:12:43.006Z,1.60
2024-01-21T21:15:10.351Z,1.50
2024-01-21T21:17:38.473Z,1.50
2024-01-21T21:20:06.770Z,1.50
2024-01-21T21:22:33.864Z,1.60
2024-01-21T21:25:01.093Z,1.50
2024-01-21T21:27:29.886Z,1.40
2024-01-21T21:29:56.835Z,1.50
2024-01-21T21:32:24.168Z,1.50
2024-01-21T21:34:52.090Z,1.50
2024-01-21T21:37:23.288Z,1.50
2024-01-21T21:39:50.194Z,1.50
2024-01-21T21:42:18.092Z,1.50
2024-01-21T21:44:48.121Z,1.50
2024-01-21T21:47:15.570Z,1.50
2024-01-21T21:49:43.929Z,1.60
2024-01-21T21:52:12.316Z,1.60
2024-01-21T21:54:41.239Z,1.60
2024-01-21T21:57:08.702Z,1.60
2024-01-21T21:59:35.733Z,1.60
2024-01-21T22:02:04.127Z,1.60
2024-01-21T22:04:32.491Z,1.60
2024-01-21T22:07:01.334Z,1.60
2024-01-21T22:09:29.267Z,1.60
2024-01-21T22:12:01.169Z,1.60
2024-01-21T22:14:28.443Z,1.60
2024-01-21T22:16:56.180Z,1.60
2024-01-21T22:19:23.072Z,1.60
2024-01-21T22:21:51.709Z,1.60
2024-01-21T22:24:18.622Z,1.50
2024-01-21T22:26:50.349Z,1.50
2024-01-21T22:29:19.973Z,1.50
2024-01-21T22:31:46.864Z,1.60
2024-01-21T22:34:14.290Z,1.70
2024-01-21T22:36:41.209Z,1.70
2024-01-21T22:39:09.541Z,1.80
2024-01-21T22:41:36.872Z,1.70
2024-01-21T22:44:04.496Z,1.70
2024-01-21T22:46:31.366Z,1.70
2024-01-21T22:48:59.227Z,1.70
2024-01-21T22:51:26.424Z,1.70
2024-01-21T22:53:54.359Z,1.70
2024-01-21T22:56:21.252Z,1.70
2024-01-21T22:58:48.897Z,1.70
2024-01-21T23:01:18.253Z,1.70
2024-01-21T23:03:47.340Z,1.80
2024-01-21T23:06:14.424Z,1.90
2024-01-21T23:08:42.340Z,2.00
2024-01-21T23:11:12.235Z,2.20
2024-01-21T23:13:40.203Z,2.20
2024-01-21T23:16:08.097Z,2.30
2024-01-21T23:18:35.611Z,2.40
2024-01-21T23:21:03.786Z,2.50
2024-01-21T23:23:31.897Z,2.50
2024-01-21T23:25:58.864Z,2.50
2024-01-21T23:28:26.185Z,2.50
2024-01-21T23:30:53.442Z,2.60
2024-01-21T23:33:20.875Z,2.70
2024-01-21T23:35:47.857Z,2.70
2024-01-21T23:38:16.691Z,2.60
2024-01-21T23:40:44.348Z,2.70
2024-01-21T23:43:14.352Z,2.60
2024-01-21T23:45:42.567Z,2.50
2024-01-21T23:48:10.362Z,2.50
2024-01-21T23:50:37.312Z,2.60
2024-01-21T23:53:05.912Z,2.60
2024-01-21T23:55:32.799Z,2.60
2024-01-21T23:58:00.986Z,2.60
